sensor_id;sensor_type;location;lat;lon;timestamp;temperature;humidity
19292;DHT22;9779;51.756;7.450;2023-05-07T00:01:20;15.10;99.90
19292;DHT22;9779;51.756;7.450;2023-05-07T00:03:45;15.10;99.90
19292;DHT22;9779;51.756;7.450;2023-05-07T00:06:11;15.10;99.90
19292;DHT22;9779;51.756;7.450;2023-05-07T00:08:38;15.10;99.90
19292;DHT22;9779;51.756;7.450;2023-05-07T00:11:03;15.10;99.90
19292;DHT22;9779;51.756;7.450;2023-05-07T00:13:29;15.00;99.90
19292;DHT22;9779;51.756;7.450;2023-05-07T00:16:01;15.00;99.90
19292;DHT22;9779;51.756;7.450;2023-05-07T00:18:27;15.00;99.90
19292;DHT22;9779;51.756;7.450;2023-05-07T00:20:52;15.00;99.90
19292;DHT22;9779;51.756;7.450;2023-05-07T00:23:18;15.10;99.90
19292;DHT22;9779;51.756;7.450;2023-05-07T00:25:43;15.00;99.90
19292;DHT22;9779;51.756;7.450;2023-05-07T00:28:09;15.00;99.90
19292;DHT22;9779;51.756;7.450;2023-05-07T00:30:34;15.00;99.90
19292;DHT22;9779;51.756;7.450;2023-05-07T00:33:00;15.00;99.90
19292;DHT22;9779;51.756;7.450;2023-05-07T00:35:26;15.00;99.90
19292;DHT22;9779;51.756;7.450;2023-05-07T00:37:51;15.00;99.90
19292;DHT22;9779;51.756;7.450;2023-05-07T00:40:17;14.90;99.90
19292;DHT22;9779;51.756;7.450;2023-05-07T00:42:42;14.90;99.90
19292;DHT22;9779;51.756;7.450;2023-05-07T00:45:13;14.90;99.90
19292;DHT22;9779;51.756;7.450;2023-05-07T00:47:39;14.90;99.90
19292;DHT22;9779;51.756;7.450;2023-05-07T00:50:05;14.90;99.90
19292;DHT22;9779;51.756;7.450;2023-05-07T00:52:31;14.90;99.90
19292;DHT22;9779;51.756;7.450;2023-05-07T00:54:57;14.90;99.90
19292;DHT22;9779;51.756;7.450;2023-05-07T00:57:24;14.90;99.90
19292;DHT22;9779;51.756;7.450;2023-05-07T00:59:51;14.90;99.90
19292;DHT22;9779;51.756;7.450;2023-05-07T01:02:17;14.90;99.90
19292;DHT22;9779;51.756;7.450;2023-05-07T01:04:42;14.90;99.90
19292;DHT22;9779;51.756;7.450;2023-05-07T01:07:08;14.90;99.90
19292;DHT22;9779;51.756;7.450;2023-05-07T01:09:34;14.90;99.90
19292;DHT22;9779;51.756;7.450;2023-05-07T01:12:01;14.80;99.90
19292;DHT22;9779;51.756;7.450;2023-05-07T01:14:27;14.90;99.90
19292;DHT22;9779;51.756;7.450;2023-05-07T01:16:53;14.80;99.90
19292;DHT22;9779;51.756;7.450;2023-05-07T01:19:19;14.80;99.90
19292;DHT22;9779;51.756;7.450;2023-05-07T01:21:47;14.80;99.90
19292;DHT22;9779;51.756;7.450;2023-05-07T01:24:13;14.80;99.90
19292;DHT22;9779;51.756;7.450;2023-05-07T01:26:39;14.70;99.90
19292;DHT22;9779;51.756;7.450;2023-05-07T01:29:05;14.70;99.90
19292;DHT22;9779;51.756;7.450;2023-05-07T01:31:32;14.70;99.90
19292;DHT22;9779;51.756;7.450;2023-05-07T01:33:59;14.70;99.90
19292;DHT22;9779;51.756;7.450;2023-05-07T01:36:27;14.70;99.90
19292;DHT22;9779;51.756;7.450;2023-05-07T01:38:54;14.70;99.90
19292;DHT22;9779;51.756;7.450;2023-05-07T01:41:20;14.70;99.90
19292;DHT22;9779;51.756;7.450;2023-05-07T01:43:48;14.70;99.90
19292;DHT22;9779;51.756;7.450;2023-05-07T01:46:14;14.60;99.90
19292;DHT22;9779;51.756;7.450;2023-05-07T01:48:40;14.60;99.90
19292;DHT22;9779;51.756;7.450;2023-05-07T01:51:07;14.60;99.90
19292;DHT22;9779;51.756;7.450;2023-05-07T01:53:37;14.60;99.90
19292;DHT22;9779;51.756;7.450;2023-05-07T01:56:03;14.60;99.90
19292;DHT22;9779;51.756;7.450;2023-05-07T01:58:29;14.60;99.90
19292;DHT22;9779;51.756;7.450;2023-05-07T02:00:55;14.60;99.90
19292;DHT22;9779;51.756;7.450;2023-05-07T02:03:20;14.50;99.90
19292;DHT22;9779;51.756;7.450;2023-05-07T02:05:46;14.50;99.90
19292;DHT22;9779;51.756;7.450;2023-05-07T02:08:11;14.50;99.90
19292;DHT22;9779;51.756;7.450;2023-05-07T02:10:37;14.50;99.90
19292;DHT22;9779;51.756;7.450;2023-05-07T02:13:02;14.50;99.90
19292;DHT22;9779;51.756;7.450;2023-05-07T02:15:28;14.50;99.90
19292;DHT22;9779;51.756;7.450;2023-05-07T02:18:03;14.50;99.90
19292;DHT22;9779;51.756;7.450;2023-05-07T02:20:29;14.50;99.90
19292;DHT22;9779;51.756;7.450;2023-05-07T02:22:55;14.50;99.90
19292;DHT22;9779;51.756;7.450;2023-05-07T02:25:20;14.50;99.90
19292;DHT22;9779;51.756;7.450;2023-05-07T02:27:46;14.50;99.90
19292;DHT22;9779;51.756;7.450;2023-05-07T02:30:12;14.50;99.90
19292;DHT22;9779;51.756;7.450;2023-05-07T02:32:37;14.50;99.90
19292;DHT22;9779;51.756;7.450;2023-05-07T02:35:03;14.40;99.90
19292;DHT22;9779;51.756;7.450;2023-05-07T02:37:29;14.40;99.90
19292;DHT22;9779;51.756;7.450;2023-05-07T02:39:54;14.40;99.90
19292;DHT22;9779;51.756;7.450;2023-05-07T02:42:20;14.40;99.90
19292;DHT22;9779;51.756;7.450;2023-05-07T02:44:45;14.40;99.90
19292;DHT22;9779;51.756;7.450;2023-05-07T02:47:13;14.40;99.90
19292;DHT22;9779;51.756;7.450;2023-05-07T02:49:38;14.40;99.90
19292;DHT22;9779;51.756;7.450;2023-05-07T02:52:04;14.40;99.90
19292;DHT22;9779;51.756;7.450;2023-05-07T02:54:30;14.40;99.90
19292;DHT22;9779;51.756;7.450;2023-05-07T02:56:55;14.30;99.90
19292;DHT22;9779;51.756;7.450;2023-05-07T02:59:21;14.30;99.90
19292;DHT22;9779;51.756;7.450;2023-05-07T03:01:47;14.30;99.90
19292;DHT22;9779;51.756;7.450;2023-05-07T03:04:13;14.30;99.90
19292;DHT22;9779;51.756;7.450;2023-05-07T03:06:39;14.20;99.90
19292;DHT22;9779;51.756;7.450;2023-05-07T03:09:04;14.20;99.90
19292;DHT22;9779;51.756;7.450;2023-05-07T03:11:30;14.20;99.90
19292;DHT22;9779;51.756;7.450;2023-05-07T03:13:55;14.20;99.90
19292;DHT22;9779;51.756;7.450;2023-05-07T03:16:21;14.20;99.90
19292;DHT22;9779;51.756;7.450;2023-05-07T03:18:46;14.20;99.90
19292;DHT22;9779;51.756;7.450;2023-05-07T03:21:12;14.20;99.90
19292;DHT22;9779;51.756;7.450;2023-05-07T03:23:38;14.10;99.90
19292;DHT22;9779;51.756;7.450;2023-05-07T03:26:03;14.20;99.90
19292;DHT22;9779;51.756;7.450;2023-05-07T03:28:29;14.20;99.90
19292;DHT22;9779;51.756;7.450;2023-05-07T03:30:54;14.10;99.90
19292;DHT22;9779;51.756;7.450;2023-05-07T03:33:20;14.10;99.90
19292;DHT22;9779;51.756;7.450;2023-05-07T03:35:46;14.10;99.90
19292;DHT22;9779;51.756;7.450;2023-05-07T03:38:11;14.10;99.90
19292;DHT22;9779;51.756;7.450;2023-05-07T03:40:37;14.20;99.90
19292;DHT22;9779;51.756;7.450;2023-05-07T03:43:02;14.10;99.90
19292;DHT22;9779;51.756;7.450;2023-05-07T03:45:28;14.10;99.90
19292;DHT22;9779;51.756;7.450;2023-05-07T03:47:53;14.10;99.90
19292;DHT22;9779;51.756;7.450;2023-05-07T03:50:19;14.10;99.90
19292;DHT22;9779;51.756;7.450;2023-05-07T03:52:45;14.10;99.90
19292;DHT22;9779;51.756;7.450;2023-05-07T03:55:11;14.00;99.90
19292;DHT22;9779;51.756;7.450;2023-05-07T03:57:36;14.00;99.90
19292;DHT22;9779;51.756;7.450;2023-05-07T04:00:02;14.00;99.90
19292;DHT22;9779;51.756;7.450;2023-05-07T04:02:29;14.00;99.90
19292;DHT22;9779;51.756;7.450;2023-05-07T04:04:55;14.00;99.90
19292;DHT22;9779;51.756;7.450;2023-05-07T04:07:21;14.00;99.90
19292;DHT22;9779;51.756;7.450;2023-05-07T04:09:47;14.00;99.90
19292;DHT22;9779;51.756;7.450;2023-05-07T04:12:12;14.00;99.90
19292;DHT22;9779;51.756;7.450;2023-05-07T04:14:38;14.00;99.90
19292;DHT22;9779;51.756;7.450;2023-05-07T04:17:03;14.00;99.90
19292;DHT22;9779;51.756;7.450;2023-05-07T04:19:29;14.00;99.90
19292;DHT22;9779;51.756;7.450;2023-05-07T04:21:54;14.00;99.90
19292;DHT22;9779;51.756;7.450;2023-05-07T04:24:20;14.00;99.90
19292;DHT22;9779;51.756;7.450;2023-05-07T04:26:45;14.00;99.90
19292;DHT22;9779;51.756;7.450;2023-05-07T04:29:11;13.90;99.90
19292;DHT22;9779;51.756;7.450;2023-05-07T04:31:37;13.90;99.90
19292;DHT22;9779;51.756;7.450;2023-05-07T04:34:02;13.90;99.90
19292;DHT22;9779;51.756;7.450;2023-05-07T04:36:28;13.90;99.90
19292;DHT22;9779;51.756;7.450;2023-05-07T04:38:54;13.90;99.90
19292;DHT22;9779;51.756;7.450;2023-05-07T04:41:20;13.90;99.90
19292;DHT22;9779;51.756;7.450;2023-05-07T04:43:46;13.90;99.90
19292;DHT22;9779;51.756;7.450;2023-05-07T04:46:11;13.90;99.90
19292;DHT22;9779;51.756;7.450;2023-05-07T04:48:37;13.90;99.90
19292;DHT22;9779;51.756;7.450;2023-05-07T04:51:02;13.90;99.90
19292;DHT22;9779;51.756;7.450;2023-05-07T04:53:28;13.90;99.90
19292;DHT22;9779;51.756;7.450;2023-05-07T04:55:57;13.90;99.90
19292;DHT22;9779;51.756;7.450;2023-05-07T04:58:23;13.90;99.90
19292;DHT22;9779;51.756;7.450;2023-05-07T05:00:49;14.00;99.90
19292;DHT22;9779;51.756;7.450;2023-05-07T05:03:14;14.00;99.90
19292;DHT22;9779;51.756;7.450;2023-05-07T05:05:40;14.00;99.90
19292;DHT22;9779;51.756;7.450;2023-05-07T05:08:06;14.00;99.90
19292;DHT22;9779;51.756;7.450;2023-05-07T05:10:31;14.00;99.90
19292;DHT22;9779;51.756;7.450;2023-05-07T05:12:57;14.00;99.90
19292;DHT22;9779;51.756;7.450;2023-05-07T05:15:22;14.10;99.90
19292;DHT22;9779;51.756;7.450;2023-05-07T05:17:48;14.10;99.90
19292;DHT22;9779;51.756;7.450;2023-05-07T05:20:14;14.10;99.90
19292;DHT22;9779;51.756;7.450;2023-05-07T05:22:41;14.10;99.90
19292;DHT22;9779;51.756;7.450;2023-05-07T05:25:07;14.10;99.90
19292;DHT22;9779;51.756;7.450;2023-05-07T05:27:32;14.10;99.90
19292;DHT22;9779;51.756;7.450;2023-05-07T05:29:58;14.10;99.90
19292;DHT22;9779;51.756;7.450;2023-05-07T05:32:23;14.10;99.90
19292;DHT22;9779;51.756;7.450;2023-05-07T05:34:49;14.10;99.90
19292;DHT22;9779;51.756;7.450;2023-05-07T05:37:14;14.10;99.90
19292;DHT22;9779;51.756;7.450;2023-05-07T05:39:40;14.10;99.90
19292;DHT22;9779;51.756;7.450;2023-05-07T05:42:06;14.10;99.90
19292;DHT22;9779;51.756;7.450;2023-05-07T05:44:32;14.10;99.90
19292;DHT22;9779;51.756;7.450;2023-05-07T05:46:57;14.10;99.90
19292;DHT22;9779;51.756;7.450;2023-05-07T05:49:24;14.10;99.90
19292;DHT22;9779;51.756;7.450;2023-05-07T05:51:50;14.20;99.90
19292;DHT22;9779;51.756;7.450;2023-05-07T05:54:15;14.20;99.90
19292;DHT22;9779;51.756;7.450;2023-05-07T05:56:41;14.20;99.90
19292;DHT22;9779;51.756;7.450;2023-05-07T05:59:07;14.20;99.90
19292;DHT22;9779;51.756;7.450;2023-05-07T06:01:33;14.30;99.90
19292;DHT22;9779;51.756;7.450;2023-05-07T06:03:58;14.30;99.90
19292;DHT22;9779;51.756;7.450;2023-05-07T06:06:24;14.30;99.90
19292;DHT22;9779;51.756;7.450;2023-05-07T06:08:49;14.30;99.90
19292;DHT22;9779;51.756;7.450;2023-05-07T06:11:15;14.30;99.90
19292;DHT22;9779;51.756;7.450;2023-05-07T06:13:41;14.30;99.90
19292;DHT22;9779;51.756;7.450;2023-05-07T06:16:06;14.40;99.90
19292;DHT22;9779;51.756;7.450;2023-05-07T06:18:32;14.40;99.90
19292;DHT22;9779;51.756;7.450;2023-05-07T06:20:57;14.40;99.90
19292;DHT22;9779;51.756;7.450;2023-05-07T06:23:23;14.40;99.90
19292;DHT22;9779;51.756;7.450;2023-05-07T06:25:49;14.50;99.90
19292;DHT22;9779;51.756;7.450;2023-05-07T06:28:15;14.50;99.90
19292;DHT22;9779;51.756;7.450;2023-05-07T06:30:41;14.50;99.90
19292;DHT22;9779;51.756;7.450;2023-05-07T06:33:06;14.60;99.90
19292;DHT22;9779;51.756;7.450;2023-05-07T06:35:32;14.60;99.90
19292;DHT22;9779;51.756;7.450;2023-05-07T06:37:58;14.60;99.90
19292;DHT22;9779;51.756;7.450;2023-05-07T06:40:23;14.70;99.90
19292;DHT22;9779;51.756;7.450;2023-05-07T06:42:49;14.70;99.90
19292;DHT22;9779;51.756;7.450;2023-05-07T06:45:14;14.70;99.90
19292;DHT22;9779;51.756;7.450;2023-05-07T06:47:40;14.70;99.90
19292;DHT22;9779;51.756;7.450;2023-05-07T06:50:06;14.80;99.90
19292;DHT22;9779;51.756;7.450;2023-05-07T06:52:32;14.80;99.90
19292;DHT22;9779;51.756;7.450;2023-05-07T06:54:57;14.80;99.90
19292;DHT22;9779;51.756;7.450;2023-05-07T06:57:24;14.90;99.90
19292;DHT22;9779;51.756;7.450;2023-05-07T06:59:49;14.90;99.90
19292;DHT22;9779;51.756;7.450;2023-05-07T07:02:15;15.00;99.90
19292;DHT22;9779;51.756;7.450;2023-05-07T07:04:40;15.00;99.90
19292;DHT22;9779;51.756;7.450;2023-05-07T07:07:07;15.00;99.90
19292;DHT22;9779;51.756;7.450;2023-05-07T07:09:32;15.00;99.90
19292;DHT22;9779;51.756;7.450;2023-05-07T07:11:58;15.10;99.90
19292;DHT22;9779;51.756;7.450;2023-05-07T07:14:24;15.10;99.90
19292;DHT22;9779;51.756;7.450;2023-05-07T07:16:49;15.10;99.90
19292;DHT22;9779;51.756;7.450;2023-05-07T07:19:15;15.10;99.90
19292;DHT22;9779;51.756;7.450;2023-05-07T07:21:41;15.10;99.90
19292;DHT22;9779;51.756;7.450;2023-05-07T07:24:07;15.10;99.90
19292;DHT22;9779;51.756;7.450;2023-05-07T07:26:32;15.20;99.90
19292;DHT22;9779;51.756;7.450;2023-05-07T07:28:58;15.20;99.90
19292;DHT22;9779;51.756;7.450;2023-05-07T07:31:23;15.20;99.90
19292;DHT22;9779;51.756;7.450;2023-05-07T07:33:49;15.20;99.90
19292;DHT22;9779;51.756;7.450;2023-05-07T07:36:15;15.30;99.90
19292;DHT22;9779;51.756;7.450;2023-05-07T07:38:41;15.30;99.90
19292;DHT22;9779;51.756;7.450;2023-05-07T07:41:08;15.30;99.90
19292;DHT22;9779;51.756;7.450;2023-05-07T07:43:34;15.40;99.90
19292;DHT22;9779;51.756;7.450;2023-05-07T07:46:00;15.40;99.90
19292;DHT22;9779;51.756;7.450;2023-05-07T07:48:26;15.50;99.90
19292;DHT22;9779;51.756;7.450;2023-05-07T07:50:52;15.50;99.90
19292;DHT22;9779;51.756;7.450;2023-05-07T07:53:18;15.50;99.90
19292;DHT22;9779;51.756;7.450;2023-05-07T07:55:44;15.50;99.90
19292;DHT22;9779;51.756;7.450;2023-05-07T07:58:09;15.50;99.90
19292;DHT22;9779;51.756;7.450;2023-05-07T08:00:35;15.50;99.90
19292;DHT22;9779;51.756;7.450;2023-05-07T08:03:01;15.60;99.90
19292;DHT22;9779;51.756;7.450;2023-05-07T08:05:28;15.60;99.90
19292;DHT22;9779;51.756;7.450;2023-05-07T08:07:54;15.70;99.90
19292;DHT22;9779;51.756;7.450;2023-05-07T08:10:21;15.80;99.90
19292;DHT22;9779;51.756;7.450;2023-05-07T08:12:48;15.90;99.90
19292;DHT22;9779;51.756;7.450;2023-05-07T08:15:14;16.00;99.90
19292;DHT22;9779;51.756;7.450;2023-05-07T08:17:40;16.10;99.90
19292;DHT22;9779;51.756;7.450;2023-05-07T08:20:06;16.20;99.90
19292;DHT22;9779;51.756;7.450;2023-05-07T08:22:32;16.20;99.90
19292;DHT22;9779;51.756;7.450;2023-05-07T08:24:57;16.30;99.90
19292;DHT22;9779;51.756;7.450;2023-05-07T08:27:23;16.50;99.90
19292;DHT22;9779;51.756;7.450;2023-05-07T08:29:48;16.60;99.90
19292;DHT22;9779;51.756;7.450;2023-05-07T08:32:15;16.60;99.90
19292;DHT22;9779;51.756;7.450;2023-05-07T08:34:40;16.60;99.90
19292;DHT22;9779;51.756;7.450;2023-05-07T08:37:06;16.60;99.90
19292;DHT22;9779;51.756;7.450;2023-05-07T08:39:32;16.70;99.90
19292;DHT22;9779;51.756;7.450;2023-05-07T08:42:00;16.60;99.90
19292;DHT22;9779;51.756;7.450;2023-05-07T08:44:28;16.70;99.90
19292;DHT22;9779;51.756;7.450;2023-05-07T08:46:58;16.70;99.90
19292;DHT22;9779;51.756;7.450;2023-05-07T08:49:25;16.80;99.90
19292;DHT22;9779;51.756;7.450;2023-05-07T08:51:50;16.80;99.90
19292;DHT22;9779;51.756;7.450;2023-05-07T08:54:16;16.90;99.90
19292;DHT22;9779;51.756;7.450;2023-05-07T08:56:43;17.00;99.90
19292;DHT22;9779;51.756;7.450;2023-05-07T08:59:08;17.10;99.90
19292;DHT22;9779;51.756;7.450;2023-05-07T09:01:34;17.20;99.90
19292;DHT22;9779;51.756;7.450;2023-05-07T09:04:01;17.20;99.90
19292;DHT22;9779;51.756;7.450;2023-05-07T09:06:27;17.40;99.90
19292;DHT22;9779;51.756;7.450;2023-05-07T09:08:53;17.50;99.90
19292;DHT22;9779;51.756;7.450;2023-05-07T09:11:25;17.70;99.90
19292;DHT22;9779;51.756;7.450;2023-05-07T09:13:54;17.80;99.90
19292;DHT22;9779;51.756;7.450;2023-05-07T09:16:22;17.90;99.90
19292;DHT22;9779;51.756;7.450;2023-05-07T09:18:51;17.90;99.90
19292;DHT22;9779;51.756;7.450;2023-05-07T09:21:18;18.00;99.90
19292;DHT22;9779;51.756;7.450;2023-05-07T09:23:44;18.10;99.90
19292;DHT22;9779;51.756;7.450;2023-05-07T09:26:10;18.20;99.90
19292;DHT22;9779;51.756;7.450;2023-05-07T09:28:40;18.20;99.90
19292;DHT22;9779;51.756;7.450;2023-05-07T09:31:10;18.30;99.90
19292;DHT22;9779;51.756;7.450;2023-05-07T09:33:36;18.40;99.90
19292;DHT22;9779;51.756;7.450;2023-05-07T09:36:06;18.40;99.90
19292;DHT22;9779;51.756;7.450;2023-05-07T09:38:33;18.60;99.90
19292;DHT22;9779;51.756;7.450;2023-05-07T09:41:09;18.70;99.90
19292;DHT22;9779;51.756;7.450;2023-05-07T09:43:37;18.80;99.90
19292;DHT22;9779;51.756;7.450;2023-05-07T09:46:07;18.90;99.90
19292;DHT22;9779;51.756;7.450;2023-05-07T09:48:37;19.00;99.90
19292;DHT22;9779;51.756;7.450;2023-05-07T09:51:10;18.90;99.90
19292;DHT22;9779;51.756;7.450;2023-05-07T09:53:37;18.90;99.90
19292;DHT22;9779;51.756;7.450;2023-05-07T09:56:05;18.90;99.90
19292;DHT22;9779;51.756;7.450;2023-05-07T09:58:32;18.90;99.90
19292;DHT22;9779;51.756;7.450;2023-05-07T10:00:58;18.90;99.90
19292;DHT22;9779;51.756;7.450;2023-05-07T10:03:27;19.00;99.90
19292;DHT22;9779;51.756;7.450;2023-05-07T10:05:54;19.00;99.90
19292;DHT22;9779;51.756;7.450;2023-05-07T10:08:20;19.10;99.90
19292;DHT22;9779;51.756;7.450;2023-05-07T10:10:46;19.20;99.90
19292;DHT22;9779;51.756;7.450;2023-05-07T10:13:12;19.20;99.90
19292;DHT22;9779;51.756;7.450;2023-05-07T10:15:38;19.30;99.90
19292;DHT22;9779;51.756;7.450;2023-05-07T10:18:06;19.30;99.90
19292;DHT22;9779;51.756;7.450;2023-05-07T10:20:33;19.30;99.90
19292;DHT22;9779;51.756;7.450;2023-05-07T10:22:59;19.40;99.90
19292;DHT22;9779;51.756;7.450;2023-05-07T10:25:29;19.50;99.90
19292;DHT22;9779;51.756;7.450;2023-05-07T10:27:58;19.50;99.90
19292;DHT22;9779;51.756;7.450;2023-05-07T10:33:08;19.60;99.90
19292;DHT22;9779;51.756;7.450;2023-05-07T10:35:41;19.70;99.90
19292;DHT22;9779;51.756;7.450;2023-05-07T10:38:08;19.90;1.00
19292;DHT22;9779;51.756;7.450;2023-05-07T10:40:34;20.10;99.90
19292;DHT22;9779;51.756;7.450;2023-05-07T10:43:02;20.20;99.90
19292;DHT22;9779;51.756;7.450;2023-05-07T10:45:29;20.20;1.00
19292;DHT22;9779;51.756;7.450;2023-05-07T10:48:07;20.30;1.00
19292;DHT22;9779;51.756;7.450;2023-05-07T10:50:33;20.40;1.00
19292;DHT22;9779;51.756;7.450;2023-05-07T10:55:51;20.70;99.90
19292;DHT22;9779;51.756;7.450;2023-05-07T10:58:27;20.70;1.00
19292;DHT22;9779;51.756;7.450;2023-05-07T11:01:00;20.80;99.90
19292;DHT22;9779;51.756;7.450;2023-05-07T11:03:27;20.80;99.90
19292;DHT22;9779;51.756;7.450;2023-05-07T11:06:13;20.90;1.00
19292;DHT22;9779;51.756;7.450;2023-05-07T11:08:57;21.00;99.90
19292;DHT22;9779;51.756;7.450;2023-05-07T11:11:45;21.00;99.90
19292;DHT22;9779;51.756;7.450;2023-05-07T11:14:12;21.00;99.90
19292;DHT22;9779;51.756;7.450;2023-05-07T11:16:37;21.00;1.00
19292;DHT22;9779;51.756;7.450;2023-05-07T11:19:05;21.10;1.00
19292;DHT22;9779;51.756;7.450;2023-05-07T11:21:40;21.20;1.00
19292;DHT22;9779;51.756;7.450;2023-05-07T11:24:08;21.20;1.00
19292;DHT22;9779;51.756;7.450;2023-05-07T11:26:46;21.30;99.90
19292;DHT22;9779;51.756;7.450;2023-05-07T11:29:19;21.40;99.90
19292;DHT22;9779;51.756;7.450;2023-05-07T11:31:49;21.40;99.90
19292;DHT22;9779;51.756;7.450;2023-05-07T11:34:21;21.50;99.90
19292;DHT22;9779;51.756;7.450;2023-05-07T11:36:47;21.50;99.90
19292;DHT22;9779;51.756;7.450;2023-05-07T11:39:27;21.60;99.90
19292;DHT22;9779;51.756;7.450;2023-05-07T11:41:53;21.80;99.90
19292;DHT22;9779;51.756;7.450;2023-05-07T11:44:18;22.00;99.90
19292;DHT22;9779;51.756;7.450;2023-05-07T11:46:44;22.00;99.90
19292;DHT22;9779;51.756;7.450;2023-05-07T11:49:10;22.10;99.90
19292;DHT22;9779;51.756;7.450;2023-05-07T11:51:36;22.10;99.90
19292;DHT22;9779;51.756;7.450;2023-05-07T11:54:04;22.20;99.90
19292;DHT22;9779;51.756;7.450;2023-05-07T11:56:34;22.20;99.90
19292;DHT22;9779;51.756;7.450;2023-05-07T11:59:00;22.30;99.90
19292;DHT22;9779;51.756;7.450;2023-05-07T12:01:26;22.40;99.90
19292;DHT22;9779;51.756;7.450;2023-05-07T12:03:51;22.50;99.90
19292;DHT22;9779;51.756;7.450;2023-05-07T12:06:17;22.60;99.90
19292;DHT22;9779;51.756;7.450;2023-05-07T12:08:44;22.80;99.90
19292;DHT22;9779;51.756;7.450;2023-05-07T12:11:15;23.00;99.90
19292;DHT22;9779;51.756;7.450;2023-05-07T12:13:43;23.10;99.90
19292;DHT22;9779;51.756;7.450;2023-05-07T12:16:08;23.40;99.90
19292;DHT22;9779;51.756;7.450;2023-05-07T12:18:36;23.50;99.90
19292;DHT22;9779;51.756;7.450;2023-05-07T12:21:02;23.60;99.90
19292;DHT22;9779;51.756;7.450;2023-05-07T12:23:28;23.80;99.90
19292;DHT22;9779;51.756;7.450;2023-05-07T12:25:54;24.00;99.90
19292;DHT22;9779;51.756;7.450;2023-05-07T12:28:20;24.00;99.90
19292;DHT22;9779;51.756;7.450;2023-05-07T12:30:47;24.10;99.90
19292;DHT22;9779;51.756;7.450;2023-05-07T12:33:23;24.20;99.90
19292;DHT22;9779;51.756;7.450;2023-05-07T12:35:48;24.20;99.90
19292;DHT22;9779;51.756;7.450;2023-05-07T12:38:17;24.20;99.90
19292;DHT22;9779;51.756;7.450;2023-05-07T12:40:55;24.20;99.90
19292;DHT22;9779;51.756;7.450;2023-05-07T12:43:25;24.00;99.90
19292;DHT22;9779;51.756;7.450;2023-05-07T12:45:54;23.80;99.90
19292;DHT22;9779;51.756;7.450;2023-05-07T12:48:20;23.80;99.90
19292;DHT22;9779;51.756;7.450;2023-05-07T12:50:50;23.80;99.90
19292;DHT22;9779;51.756;7.450;2023-05-07T12:53:16;23.90;99.90
19292;DHT22;9779;51.756;7.450;2023-05-07T12:55:44;23.80;99.90
19292;DHT22;9779;51.756;7.450;2023-05-07T12:58:19;23.80;99.90
19292;DHT22;9779;51.756;7.450;2023-05-07T13:00:45;23.70;99.90
19292;DHT22;9779;51.756;7.450;2023-05-07T13:03:21;23.60;99.90
19292;DHT22;9779;51.756;7.450;2023-05-07T13:05:47;23.50;99.90
19292;DHT22;9779;51.756;7.450;2023-05-07T13:08:12;23.40;99.90
19292;DHT22;9779;51.756;7.450;2023-05-07T13:10:48;23.30;99.90
19292;DHT22;9779;51.756;7.450;2023-05-07T13:13:13;23.20;99.90
19292;DHT22;9779;51.756;7.450;2023-05-07T13:15:39;23.20;99.90
19292;DHT22;9779;51.756;7.450;2023-05-07T13:18:04;23.00;99.90
19292;DHT22;9779;51.756;7.450;2023-05-07T13:20:30;22.90;99.90
19292;DHT22;9779;51.756;7.450;2023-05-07T13:22:55;22.90;99.90
19292;DHT22;9779;51.756;7.450;2023-05-07T13:25:21;22.90;99.90
19292;DHT22;9779;51.756;7.450;2023-05-07T13:27:46;22.80;99.90
19292;DHT22;9779;51.756;7.450;2023-05-07T13:30:12;22.70;99.90
19292;DHT22;9779;51.756;7.450;2023-05-07T13:32:38;22.70;99.90
19292;DHT22;9779;51.756;7.450;2023-05-07T13:35:03;22.70;1.00
19292;DHT22;9779;51.756;7.450;2023-05-07T13:37:29;22.60;99.90
19292;DHT22;9779;51.756;7.450;2023-05-07T13:39:55;22.70;99.90
19292;DHT22;9779;51.756;7.450;2023-05-07T13:42:20;22.60;99.90
19292;DHT22;9779;51.756;7.450;2023-05-07T13:44:46;22.70;99.90
19292;DHT22;9779;51.756;7.450;2023-05-07T13:47:11;22.60;1.00
19292;DHT22;9779;51.756;7.450;2023-05-07T13:49:37;22.60;99.90
19292;DHT22;9779;51.756;7.450;2023-05-07T13:52:03;22.60;99.90
19292;DHT22;9779;51.756;7.450;2023-05-07T13:54:29;22.60;99.90
19292;DHT22;9779;51.756;7.450;2023-05-07T13:56:54;22.50;99.90
19292;DHT22;9779;51.756;7.450;2023-05-07T13:59:20;22.50;99.90
19292;DHT22;9779;51.756;7.450;2023-05-07T14:01:45;22.40;99.90
19292;DHT22;9779;51.756;7.450;2023-05-07T14:04:11;22.50;1.00
19292;DHT22;9779;51.756;7.450;2023-05-07T14:06:36;22.40;1.00
19292;DHT22;9779;51.756;7.450;2023-05-07T14:09:02;22.40;99.90
19292;DHT22;9779;51.756;7.450;2023-05-07T14:11:28;22.40;1.00
19292;DHT22;9779;51.756;7.450;2023-05-07T14:13:53;22.40;1.00
19292;DHT22;9779;51.756;7.450;2023-05-07T14:16:19;22.30;99.90
19292;DHT22;9779;51.756;7.450;2023-05-07T14:18:44;22.20;99.90
19292;DHT22;9779;51.756;7.450;2023-05-07T14:21:10;22.10;1.00
19292;DHT22;9779;51.756;7.450;2023-05-07T14:23:35;22.10;99.90
19292;DHT22;9779;51.756;7.450;2023-05-07T14:26:01;22.10;1.00
19292;DHT22;9779;51.756;7.450;2023-05-07T14:28:27;22.10;1.00
19292;DHT22;9779;51.756;7.450;2023-05-07T14:30:52;22.10;1.00
19292;DHT22;9779;51.756;7.450;2023-05-07T14:33:18;22.00;1.00
19292;DHT22;9779;51.756;7.450;2023-05-07T14:35:43;22.00;99.90
19292;DHT22;9779;51.756;7.450;2023-05-07T14:38:14;22.00;1.00
19292;DHT22;9779;51.756;7.450;2023-05-07T14:40:39;21.90;99.90
19292;DHT22;9779;51.756;7.450;2023-05-07T14:43:05;21.90;99.90
19292;DHT22;9779;51.756;7.450;2023-05-07T14:45:30;21.80;99.90
19292;DHT22;9779;51.756;7.450;2023-05-07T14:47:56;21.80;1.00
19292;DHT22;9779;51.756;7.450;2023-05-07T14:50:21;21.80;99.90
19292;DHT22;9779;51.756;7.450;2023-05-07T14:52:47;21.80;99.90
19292;DHT22;9779;51.756;7.450;2023-05-07T14:55:12;21.80;99.90
19292;DHT22;9779;51.756;7.450;2023-05-07T14:57:38;21.80;99.90
19292;DHT22;9779;51.756;7.450;2023-05-07T15:00:03;21.70;99.90
19292;DHT22;9779;51.756;7.450;2023-05-07T15:02:30;21.70;99.90
19292;DHT22;9779;51.756;7.450;2023-05-07T15:04:55;21.70;1.00
19292;DHT22;9779;51.756;7.450;2023-05-07T15:07:21;21.60;1.00
19292;DHT22;9779;51.756;7.450;2023-05-07T15:09:46;21.60;1.00
19292;DHT22;9779;51.756;7.450;2023-05-07T15:12:13;21.50;5.50
19292;DHT22;9779;51.756;7.450;2023-05-07T15:14:38;21.50;1.00
19292;DHT22;9779;51.756;7.450;2023-05-07T15:17:04;21.50;1.00
19292;DHT22;9779;51.756;7.450;2023-05-07T15:19:30;21.40;1.00
19292;DHT22;9779;51.756;7.450;2023-05-07T15:21:58;21.40;1.00
19292;DHT22;9779;51.756;7.450;2023-05-07T15:24:28;21.40;1.00
19292;DHT22;9779;51.756;7.450;2023-05-07T15:26:53;21.40;96.00
19292;DHT22;9779;51.756;7.450;2023-05-07T15:29:19;21.40;1.20
19292;DHT22;9779;51.756;7.450;2023-05-07T15:31:44;21.40;1.00
19292;DHT22;9779;51.756;7.450;2023-05-07T15:34:10;21.30;1.00
19292;DHT22;9779;51.756;7.450;2023-05-07T15:36:35;21.30;1.00
19292;DHT22;9779;51.756;7.450;2023-05-07T15:39:01;21.30;99.90
19292;DHT22;9779;51.756;7.450;2023-05-07T15:41:28;21.30;1.00
19292;DHT22;9779;51.756;7.450;2023-05-07T15:43:53;21.20;99.90
19292;DHT22;9779;51.756;7.450;2023-05-07T15:46:23;21.20;99.90
19292;DHT22;9779;51.756;7.450;2023-05-07T15:48:50;21.30;99.90